Time;durP1;ratioP1;P1;durP2;ratioP2;P2;SDS_P1;SDS_P2;PMS_P1;PMS_P2;Temp;Humidity;BMP_temperature;BMP_pressure;BME280_temperature;BME280_humidity;BME280_pressure;Samples;Min_cycle;Max_cycle;Signal;HPM_P1;HPM_P2
2021/01/08 00:00:54;;;;;;;;;;;18.80;37.80;;;;;;491596;240;1198;-54
2021/01/08 00:02:55;;;;;;;;;;;18.80;37.90;;;;;;491686;240;1141;-54
2021/01/08 00:04:56;;;;;;;;;;;18.80;37.90;;;;;;491676;240;2268;-54
2021/01/08 00:06:57;;;;;;;;;;;18.80;36.60;;;;;;491586;240;1216;-54
2021/01/08 00:08:59;;;;;;;;;;;18.80;37.90;;;;;;491579;240;947;-53
2021/01/08 00:11:01;;;;;;;;;;;18.80;37.90;;;;;;491554;240;1212;-54
2021/01/08 00:13:02;;;;;;;;;;;18.80;37.90;;;;;;491705;240;1213;-54
2021/01/08 00:15:03;;;;;;;;;;;18.70;37.90;;;;;;491668;240;1072;-54
2021/01/08 00:17:04;;;;;;;;;;;18.80;38.00;;;;;;491531;240;1357;-54
2021/01/08 00:19:06;;;;;;;;;;;18.70;37.90;;;;;;491565;240;1105;-54
2021/01/08 00:21:07;;;;;;;;;;;18.70;37.90;;;;;;491774;240;979;-54
2021/01/08 00:23:08;;;;;;;;;;;18.70;38.00;;;;;;491739;240;1172;-54
2021/01/08 00:25:09;;;;;;;;;;;18.70;38.00;;;;;;491710;240;2193;-54
2021/01/08 00:27:11;;;;;;;;;;;18.70;38.00;;;;;;491554;240;1208;-54
2021/01/08 00:29:12;;;;;;;;;;;18.70;38.00;;;;;;491629;240;1203;-54
2021/01/08 00:31:13;;;;;;;;;;;18.70;36.70;;;;;;491699;240;1204;-54
2021/01/08 00:33:14;;;;;;;;;;;18.70;38.00;;;;;;491684;240;1208;-54
2021/01/08 00:35:16;;;;;;;;;;;18.70;38.00;;;;;;491738;240;1480;-54
2021/01/08 00:37:17;;;;;;;;;;;18.70;38.00;;;;;;491565;240;1176;-53
2021/01/08 00:39:18;;;;;;;;;;;18.70;38.00;;;;;;491677;240;1002;-54
2021/01/08 00:41:19;;;;;;;;;;;18.70;38.00;;;;;;491620;240;1065;-54
2021/01/08 00:43:21;;;;;;;;;;;18.70;38.10;;;;;;491581;240;1316;-54
2021/01/08 00:45:22;;;;;;;;;;;18.60;38.00;;;;;;491695;240;2137;-54
2021/01/08 00:47:23;;;;;;;;;;;18.60;38.00;;;;;;491622;240;1294;-54
2021/01/08 00:49:25;;;;;;;;;;;18.60;38.00;;;;;;491666;240;1231;-54
2021/01/08 00:51:26;;;;;;;;;;;18.60;38.00;;;;;;491760;240;1163;-53
2021/01/08 00:53:27;;;;;;;;;;;18.60;38.00;;;;;;491621;240;1365;-54
2021/01/08 00:55:28;;;;;;;;;;;18.60;38.00;;;;;;491688;240;1033;-54
2021/01/08 00:57:30;;;;;;;;;;;18.60;38.00;;;;;;491485;240;1313;-54
2021/01/08 00:59:31;;;;;;;;;;;18.60;38.10;;;;;;491702;240;1222;-54
2021/01/08 01:01:32;;;;;;;;;;;18.60;38.00;;;;;;491613;240;1256;-54
2021/01/08 01:03:34;;;;;;;;;;;18.60;38.10;;;;;;491557;240;1287;-54
2021/01/08 01:05:35;;;;;;;;;;;18.50;38.00;;;;;;491644;240;2138;-54
2021/01/08 01:07:36;;;;;;;;;;;18.50;38.00;;;;;;491481;240;1173;-53
2021/01/08 01:09:37;;;;;;;;;;;18.60;36.80;;;;;;491723;240;1141;-54
2021/01/08 01:11:39;;;;;;;;;;;18.50;38.00;;;;;;491648;240;1248;-54
2021/01/08 01:13:40;;;;;;;;;;;18.50;38.00;;;;;;491707;240;1257;-53
2021/01/08 01:15:41;;;;;;;;;;;18.50;38.00;;;;;;491698;240;1143;-54
2021/01/08 01:17:43;;;;;;;;;;;18.50;38.10;;;;;;491641;240;1173;-54
2021/01/08 01:19:44;;;;;;;;;;;18.50;38.10;;;;;;491682;240;1383;-54
2021/01/08 01:21:45;;;;;;;;;;;18.50;38.00;;;;;;491650;240;1132;-54
2021/01/08 01:23:46;;;;;;;;;;;18.50;38.10;;;;;;491739;240;1000;-54
2021/01/08 01:25:48;;;;;;;;;;;18.50;38.10;;;;;;491833;240;2199;-54
2021/01/08 01:27:49;;;;;;;;;;;18.50;38.10;;;;;;491734;240;1054;-54
2021/01/08 01:29:50;;;;;;;;;;;18.50;38.10;;;;;;491643;240;1192;-54
2021/01/08 01:31:51;;;;;;;;;;;18.50;38.10;;;;;;491609;240;1183;-54
2021/01/08 01:33:53;;;;;;;;;;;18.50;38.10;;;;;;491620;240;1079;-54
2021/01/08 01:35:54;;;;;;;;;;;18.50;38.10;;;;;;491631;240;1203;-54
2021/01/08 01:37:55;;;;;;;;;;;18.50;38.10;;;;;;491795;240;1154;-54
2021/01/08 01:39:56;;;;;;;;;;;18.50;38.10;;;;;;491807;240;995;-54
2021/01/08 01:41:58;;;;;;;;;;;18.50;38.10;;;;;;491581;240;1682;-54
2021/01/08 01:43:59;;;;;;;;;;;18.50;38.10;;;;;;491614;240;1182;-54
2021/01/08 01:46:00;;;;;;;;;;;18.50;38.10;;;;;;491575;240;2141;-54
2021/01/08 01:48:02;;;;;;;;;;;18.50;38.20;;;;;;491541;240;1172;-54
2021/01/08 01:50:03;;;;;;;;;;;18.40;38.10;;;;;;491799;240;1327;-53
2021/01/08 01:52:04;;;;;;;;;;;18.40;38.10;;;;;;491598;240;1266;-53
2021/01/08 01:54:05;;;;;;;;;;;18.40;38.10;;;;;;491685;240;1232;-54
2021/01/08 01:56:07;;;;;;;;;;;18.40;38.10;;;;;;491764;240;1085;-54
2021/01/08 01:58:08;;;;;;;;;;;18.40;38.10;;;;;;491811;240;1183;-54
2021/01/08 02:00:09;;;;;;;;;;;18.40;38.10;;;;;;491708;240;1378;-53
2021/01/08 02:02:11;;;;;;;;;;;18.40;38.10;;;;;;491635;240;1376;-54
2021/01/08 02:04:12;;;;;;;;;;;18.40;38.10;;;;;;491874;240;1030;-54
2021/01/08 02:06:13;;;;;;;;;;;18.40;38.20;;;;;;491728;240;2187;-54
2021/01/08 02:08:14;;;;;;;;;;;18.40;38.10;;;;;;491743;240;980;-54
2021/01/08 02:10:16;;;;;;;;;;;18.40;38.20;;;;;;491655;240;979;-54
2021/01/08 02:12:17;;;;;;;;;;;18.40;38.20;;;;;;491591;240;1062;-54
2021/01/08 02:14:18;;;;;;;;;;;18.40;38.20;;;;;;491882;240;1056;-54
2021/01/08 02:16:19;;;;;;;;;;;18.40;38.20;;;;;;491656;240;1169;-53
2021/01/08 02:18:21;;;;;;;;;;;18.40;38.20;;;;;;491711;240;1060;-54
2021/01/08 02:20:22;;;;;;;;;;;18.40;38.20;;;;;;491955;240;1086;-53
2021/01/08 02:22:23;;;;;;;;;;;18.40;38.20;;;;;;491693;240;1047;-53
2021/01/08 02:24:25;;;;;;;;;;;18.40;38.20;;;;;;491605;240;1088;-54
2021/01/08 02:26:26;;;;;;;;;;;18.40;38.20;;;;;;491695;240;2187;-54
2021/01/08 02:28:27;;;;;;;;;;;18.40;38.20;;;;;;491651;240;1099;-54
2021/01/08 02:30:29;;;;;;;;;;;18.40;38.20;;;;;;491651;240;1192;-54
2021/01/08 02:32:30;;;;;;;;;;;18.40;38.20;;;;;;491689;240;1194;-54
2021/01/08 02:34:31;;;;;;;;;;;18.40;38.10;;;;;;491796;240;1063;-54
2021/01/08 02:36:32;;;;;;;;;;;18.40;38.10;;;;;;491736;240;1225;-54
2021/01/08 02:38:34;;;;;;;;;;;18.40;38.10;;;;;;491661;240;1021;-53
2021/01/08 02:40:35;;;;;;;;;;;18.50;38.00;;;;;;491736;240;1041;-54
2021/01/08 02:42:36;;;;;;;;;;;18.50;38.00;;;;;;491698;240;1312;-54
2021/01/08 02:44:37;;;;;;;;;;;18.50;38.00;;;;;;491742;240;1042;-54
2021/01/08 02:46:39;;;;;;;;;;;18.50;37.90;;;;;;491571;240;2200;-54
2021/01/08 02:48:40;;;;;;;;;;;18.50;37.90;;;;;;491596;240;1853;-54
2021/01/08 02:50:41;;;;;;;;;;;18.50;37.90;;;;;;491663;240;1099;-54
2021/01/08 02:52:43;;;;;;;;;;;18.50;37.80;;;;;;491585;240;1166;-53
2021/01/08 02:54:44;;;;;;;;;;;18.60;37.90;;;;;;491734;240;1126;-54
2021/01/08 02:56:45;;;;;;;;;;;18.60;37.80;;;;;;491594;240;1120;-54
2021/01/08 02:58:47;;;;;;;;;;;18.60;37.80;;;;;;491638;240;1155;-54
2021/01/08 03:00:48;;;;;;;;;;;18.60;37.80;;;;;;491806;240;1599;-54
2021/01/08 03:02:49;;;;;;;;;;;18.70;37.80;;;;;;491580;240;1379;-54
2021/01/08 03:04:51;;;;;;;;;;;18.70;37.80;;;;;;491753;240;1044;-54
2021/01/08 03:06:52;;;;;;;;;;;18.60;37.70;;;;;;491689;240;2109;-54
2021/01/08 03:08:53;;;;;;;;;;;18.70;37.80;;;;;;491612;240;1112;-53
2021/01/08 03:10:54;;;;;;;;;;;18.70;37.70;;;;;;491568;240;960;-54
2021/01/08 03:12:56;;;;;;;;;;;18.70;37.70;;;;;;491635;240;1167;-54
2021/01/08 03:14:57;;;;;;;;;;;18.70;37.60;;;;;;491672;240;964;-54
2021/01/08 03:16:58;;;;;;;;;;;18.70;37.60;;;;;;491542;240;1281;-53
2021/01/08 03:19:00;;;;;;;;;;;18.80;37.60;;;;;;491642;240;1088;-54
2021/01/08 03:21:01;;;;;;;;;;;18.80;37.60;;;;;;491753;240;1115;-54
2021/01/08 03:23:03;;;;;;;;;;;18.80;37.60;;;;;;491631;240;1122;-54
2021/01/08 03:25:04;;;;;;;;;;;18.80;37.60;;;;;;491606;240;2173;-54
2021/01/08 03:27:05;;;;;;;;;;;18.80;37.50;;;;;;491533;240;2199;-54
2021/01/08 03:29:06;;;;;;;;;;;18.80;37.50;;;;;;491634;240;1038;-54
2021/01/08 03:31:08;;;;;;;;;;;18.80;37.50;;;;;;491832;240;1156;-54
2021/01/08 03:33:09;;;;;;;;;;;18.80;37.40;;;;;;491635;240;1054;-54
2021/01/08 03:35:10;;;;;;;;;;;18.90;37.50;;;;;;491780;240;1094;-54
2021/01/08 03:37:11;;;;;;;;;;;18.90;37.50;;;;;;491645;240;947;-54
2021/01/08 03:39:13;;;;;;;;;;;18.90;37.40;;;;;;491595;240;1047;-53
2021/01/08 03:41:14;;;;;;;;;;;18.90;37.40;;;;;;491573;240;1096;-54
2021/01/08 03:43:15;;;;;;;;;;;18.90;37.30;;;;;;491639;240;1050;-53
2021/01/08 03:45:17;;;;;;;;;;;18.90;37.30;;;;;;491716;240;2199;-54
2021/01/08 03:47:18;;;;;;;;;;;18.90;37.30;;;;;;491657;240;1111;-55
2021/01/08 03:49:19;;;;;;;;;;;18.90;37.30;;;;;;491702;238;1263;-54
2021/01/08 03:51:20;;;;;;;;;;;18.90;37.30;;;;;;491762;240;1037;-54
2021/01/08 03:53:22;;;;;;;;;;;19.00;37.40;;;;;;491717;240;1046;-54
2021/01/08 03:55:23;;;;;;;;;;;19.00;37.40;;;;;;491616;240;1074;-54
2021/01/08 03:57:24;;;;;;;;;;;19.00;37.40;;;;;;491567;240;1182;-54
2021/01/08 03:59:26;;;;;;;;;;;19.00;37.30;;;;;;491586;240;1178;-55
2021/01/08 04:01:27;;;;;;;;;;;19.00;37.30;;;;;;491644;238;1291;-54
2021/01/08 04:03:28;;;;;;;;;;;19.00;37.30;;;;;;491583;240;1143;-54
2021/01/08 04:05:29;;;;;;;;;;;19.00;37.30;;;;;;491752;240;2144;-54
2021/01/08 04:07:31;;;;;;;;;;;19.00;37.20;;;;;;491796;240;1127;-54
2021/01/08 04:09:33;;;;;;;;;;;19.10;37.20;;;;;;491671;240;1017;-54
2021/01/08 04:11:34;;;;;;;;;;;19.10;37.20;;;;;;491762;240;946;-54
2021/01/08 04:13:35;;;;;;;;;;;19.10;37.20;;;;;;491701;240;1180;-54
2021/01/08 04:15:36;;;;;;;;;;;19.10;37.20;;;;;;491689;240;1170;-55
2021/01/08 04:17:38;;;;;;;;;;;19.10;37.20;;;;;;491650;240;1158;-54
2021/01/08 04:19:39;;;;;;;;;;;19.10;37.20;;;;;;491612;240;1054;-54
2021/01/08 04:21:40;;;;;;;;;;;19.10;37.20;;;;;;491698;240;1174;-54
2021/01/08 04:23:42;;;;;;;;;;;19.10;37.10;;;;;;491598;241;2088;-54
2021/01/08 04:25:43;;;;;;;;;;;19.10;37.10;;;;;;491582;240;2128;-54
2021/01/08 04:27:44;;;;;;;;;;;19.10;37.10;;;;;;491576;240;1215;-54
2021/01/08 04:29:45;;;;;;;;;;;19.20;37.20;;;;;;491668;240;1015;-54
2021/01/08 04:31:47;;;;;;;;;;;19.20;37.20;;;;;;491558;240;1233;-54
2021/01/08 04:33:48;;;;;;;;;;;19.20;37.10;;;;;;491599;240;1143;-53
2021/01/08 04:35:52;;;;;;;;;;;19.20;37.10;;;;;;491739;240;1044;-54
2021/01/08 04:37:51;;;;;;;;;;;19.20;37.10;;;;;;491632;241;1365;-54
2021/01/08 04:39:52;;;;;;;;;;;19.20;37.10;;;;;;491607;240;1145;-54
2021/01/08 04:41:53;;;;;;;;;;;19.20;37.10;;;;;;491786;240;954;-54
2021/01/08 04:43:54;;;;;;;;;;;19.20;37.10;;;;;;491633;240;1061;-55
2021/01/08 04:45:56;;;;;;;;;;;19.20;37.10;;;;;;491576;240;2188;-54
2021/01/08 04:47:57;;;;;;;;;;;19.20;37.00;;;;;;491686;240;1133;-54
2021/01/08 04:49:58;;;;;;;;;;;19.20;37.00;;;;;;491601;240;1244;-54
2021/01/08 04:51:59;;;;;;;;;;;19.20;37.00;;;;;;491622;240;1106;-54
2021/01/08 04:54:01;;;;;;;;;;;19.30;37.10;;;;;;491620;240;991;-54
2021/01/08 04:56:02;;;;;;;;;;;19.30;37.10;;;;;;491716;240;1062;-54
2021/01/08 04:58:03;;;;;;;;;;;19.30;37.00;;;;;;491678;240;1054;-54
2021/01/08 05:00:05;;;;;;;;;;;19.30;37.00;;;;;;491748;240;1052;-53
2021/01/08 05:02:06;;;;;;;;;;;19.30;37.00;;;;;;491637;240;1200;-54
2021/01/08 05:04:08;;;;;;;;;;;19.30;37.00;;;;;;491675;240;1069;-54
2021/01/08 05:06:09;;;;;;;;;;;19.30;37.00;;;;;;491736;240;2144;-53
2021/01/08 05:08:10;;;;;;;;;;;19.30;37.00;;;;;;491788;240;1639;-54
2021/01/08 05:10:11;;;;;;;;;;;19.30;37.00;;;;;;491732;240;1089;-54
2021/01/08 05:12:13;;;;;;;;;;;19.30;37.00;;;;;;491608;240;1247;-54
2021/01/08 05:14:14;;;;;;;;;;;19.30;37.00;;;;;;491655;240;1042;-54
2021/01/08 05:16:15;;;;;;;;;;;19.30;36.90;;;;;;491644;240;1076;-54
2021/01/08 05:18:16;;;;;;;;;;;19.40;37.00;;;;;;491638;240;1314;-54
2021/01/08 05:20:18;;;;;;;;;;;19.40;37.00;;;;;;491634;240;952;-55
2021/01/08 05:22:19;;;;;;;;;;;19.40;36.90;;;;;;491620;240;1293;-54
2021/01/08 05:24:20;;;;;;;;;;;19.40;36.90;;;;;;491584;240;1052;-54
2021/01/08 05:26:21;;;;;;;;;;;19.40;37.00;;;;;;491616;240;2183;-54
2021/01/08 05:28:23;;;;;;;;;;;19.40;36.90;;;;;;491682;240;1166;-54
2021/01/08 05:30:25;;;;;;;;;;;19.40;36.90;;;;;;491632;240;1017;-54
2021/01/08 05:32:25;;;;;;;;;;;19.40;36.90;;;;;;491566;241;1919;-54
2021/01/08 05:34:27;;;;;;;;;;;19.40;36.90;;;;;;491609;240;1080;-54
2021/01/08 05:36:28;;;;;;;;;;;19.40;36.80;;;;;;491619;240;1053;-54
2021/01/08 05:38:29;;;;;;;;;;;19.40;35.60;;;;;;491613;240;1178;-54
2021/01/08 05:40:31;;;;;;;;;;;19.40;36.90;;;;;;491651;240;1099;-54
2021/01/08 05:42:32;;;;;;;;;;;19.40;36.80;;;;;;491612;240;1391;-54
2021/01/08 05:44:33;;;;;;;;;;;19.50;36.90;;;;;;491595;240;1138;-54
2021/01/08 05:46:34;;;;;;;;;;;19.40;36.80;;;;;;491599;240;2191;-54
2021/01/08 05:48:36;;;;;;;;;;;19.50;35.50;;;;;;491486;240;1201;-54
2021/01/08 05:50:37;;;;;;;;;;;19.50;36.80;;;;;;491633;240;1207;-54
2021/01/08 05:52:38;;;;;;;;;;;19.50;36.80;;;;;;491461;240;1350;-54
2021/01/08 05:54:40;;;;;;;;;;;19.50;36.90;;;;;;491544;240;1157;-54
2021/01/08 05:56:41;;;;;;;;;;;19.50;36.80;;;;;;491483;240;1189;-54
2021/01/08 05:58:42;;;;;;;;;;;19.50;36.80;;;;;;491631;240;1445;-54
2021/01/08 06:00:43;;;;;;;;;;;19.50;36.80;;;;;;491614;240;1077;-54
2021/01/08 06:02:45;;;;;;;;;;;19.50;36.80;;;;;;491508;240;1378;-54
2021/01/08 06:04:46;;;;;;;;;;;19.50;36.80;;;;;;491567;240;1047;-54
2021/01/08 06:06:47;;;;;;;;;;;19.50;36.80;;;;;;491511;240;2184;-54
2021/01/08 06:08:49;;;;;;;;;;;19.50;36.80;;;;;;491620;240;1366;-54
2021/01/08 06:10:50;;;;;;;;;;;19.50;36.80;;;;;;491675;240;1103;-54
2021/01/08 06:12:51;;;;;;;;;;;19.50;36.80;;;;;;491490;240;1457;-54
2021/01/08 06:14:52;;;;;;;;;;;19.50;36.80;;;;;;491520;240;1021;-54
2021/01/08 06:16:54;;;;;;;;;;;19.50;36.70;;;;;;491431;240;1162;-54
2021/01/08 06:18:55;;;;;;;;;;;19.60;36.80;;;;;;491588;240;1146;-53
2021/01/08 06:20:56;;;;;;;;;;;19.60;36.80;;;;;;491486;240;1027;-54
2021/01/08 06:22:57;;;;;;;;;;;19.60;36.80;;;;;;491522;240;1165;-54
2021/01/08 06:24:59;;;;;;;;;;;19.60;36.80;;;;;;491502;240;1165;-54
2021/01/08 06:27:00;;;;;;;;;;;19.60;36.80;;;;;;491461;240;2256;-54
2021/01/08 06:29:02;;;;;;;;;;;19.60;36.80;;;;;;491520;240;1054;-54
2021/01/08 06:31:03;;;;;;;;;;;19.60;36.80;;;;;;491516;240;1083;-54
2021/01/08 06:33:04;;;;;;;;;;;19.60;36.80;;;;;;491478;240;1153;-54
2021/01/08 06:35:05;;;;;;;;;;;19.60;36.70;;;;;;491650;240;963;-54
2021/01/08 06:37:07;;;;;;;;;;;19.60;36.70;;;;;;491456;240;1261;-54
2021/01/08 06:39:11;;;;;;;;;;;19.60;36.70;;;;;;491535;240;1182;-54
2021/01/08 06:41:09;;;;;;;;;;;19.60;36.70;;;;;;491358;241;1563;-54
2021/01/08 06:43:10;;;;;;;;;;;19.60;36.70;;;;;;491487;240;1089;-54
2021/01/08 06:45:12;;;;;;;;;;;19.60;36.70;;;;;;491380;240;1298;-54
2021/01/08 06:47:13;;;;;;;;;;;19.60;36.70;;;;;;491405;240;2187;-54
2021/01/08 06:49:14;;;;;;;;;;;19.60;36.70;;;;;;491474;240;1176;-54
2021/01/08 06:51:16;;;;;;;;;;;19.60;36.70;;;;;;491491;240;1198;-54
2021/01/08 06:53:17;;;;;;;;;;;19.60;36.70;;;;;;491480;240;1176;-54
2021/01/08 06:55:19;;;;;;;;;;;19.60;36.70;;;;;;491442;240;1616;-54
2021/01/08 06:57:21;;;;;;;;;;;19.60;36.70;;;;;;491382;240;1290;-54
2021/01/08 06:59:21;;;;;;;;;;;19.70;36.70;;;;;;491547;240;1223;-54
2021/01/08 07:01:22;;;;;;;;;;;19.70;36.70;;;;;;491444;240;1143;-54
2021/01/08 07:03:24;;;;;;;;;;;19.60;36.60;;;;;;491382;240;1185;-54
2021/01/08 07:05:25;;;;;;;;;;;19.60;36.70;;;;;;491468;240;1118;-54
2021/01/08 07:07:26;;;;;;;;;;;19.70;36.70;;;;;;491304;240;2140;-54
2021/01/08 07:09:28;;;;;;;;;;;19.70;36.70;;;;;;491346;240;1032;-54
2021/01/08 07:11:29;;;;;;;;;;;19.70;36.70;;;;;;491279;240;1219;-54
2021/01/08 07:13:31;;;;;;;;;;;19.60;36.60;;;;;;491321;240;1130;-54
2021/01/08 07:15:32;;;;;;;;;;;19.70;36.70;;;;;;491280;240;1126;-54
2021/01/08 07:17:33;;;;;;;;;;;19.70;36.70;;;;;;491318;240;1273;-54
2021/01/08 07:19:34;;;;;;;;;;;19.70;36.60;;;;;;491520;240;1203;-55
2021/01/08 07:21:36;;;;;;;;;;;19.70;36.60;;;;;;491349;240;1108;-54
2021/01/08 07:23:37;;;;;;;;;;;19.70;36.60;;;;;;491368;240;1173;-54
2021/01/08 07:25:39;;;;;;;;;;;19.70;36.60;;;;;;491281;240;978;-54
2021/01/08 07:27:40;;;;;;;;;;;19.70;36.60;;;;;;491430;240;2129;-54
2021/01/08 07:29:41;;;;;;;;;;;19.70;35.30;;;;;;491399;240;1053;-54
2021/01/08 07:31:43;;;;;;;;;;;19.70;36.60;;;;;;491335;240;967;-54
2021/01/08 07:33:44;;;;;;;;;;;19.70;36.60;;;;;;491270;240;2285;-54
2021/01/08 07:35:45;;;;;;;;;;;19.70;36.60;;;;;;491288;240;1047;-54
2021/01/08 07:37:46;;;;;;;;;;;19.70;36.60;;;;;;491405;240;1034;-54
2021/01/08 07:39:48;;;;;;;;;;;19.70;36.60;;;;;;491368;240;954;-54
2021/01/08 07:41:49;;;;;;;;;;;19.70;36.60;;;;;;491330;240;1002;-54
2021/01/08 07:43:50;;;;;;;;;;;19.70;36.60;;;;;;491393;240;1243;-54
2021/01/08 07:45:51;;;;;;;;;;;19.80;36.60;;;;;;491340;240;1054;-54
2021/01/08 07:47:53;;;;;;;;;;;19.80;36.60;;;;;;491210;240;2136;-54
2021/01/08 07:49:54;;;;;;;;;;;19.80;36.60;;;;;;491271;240;1196;-54
2021/01/08 07:51:56;;;;;;;;;;;19.80;36.60;;;;;;491134;240;1084;-54
2021/01/08 07:53:57;;;;;;;;;;;19.70;36.50;;;;;;491216;240;1164;-54
2021/01/08 07:55:58;;;;;;;;;;;19.70;36.50;;;;;;491194;240;1311;-54
2021/01/08 07:57:59;;;;;;;;;;;19.80;36.60;;;;;;491275;240;1158;-54
2021/01/08 08:00:01;;;;;;;;;;;19.70;36.50;;;;;;491251;240;972;-54
2021/01/08 08:02:02;;;;;;;;;;;19.80;35.20;;;;;;491233;240;1085;-54
2021/01/08 08:04:03;;;;;;;;;;;19.80;36.50;;;;;;491256;240;1219;-54
2021/01/08 08:06:04;;;;;;;;;;;19.80;36.50;;;;;;491180;240;1058;-54
2021/01/08 08:08:06;;;;;;;;;;;19.80;36.50;;;;;;491258;240;2133;-53
2021/01/08 08:10:08;;;;;;;;;;;19.80;36.50;;;;;;491307;240;1247;-54
2021/01/08 08:12:13;;;;;;;;;;;19.80;36.50;;;;;;491024;242;1254;-54
2021/01/08 08:14:14;;;;;;;;;;;19.80;36.50;;;;;;491194;240;1048;-53
2021/01/08 08:16:15;;;;;;;;;;;19.80;36.50;;;;;;491064;240;1139;-54
2021/01/08 08:18:17;;;;;;;;;;;19.80;36.50;;;;;;491097;240;1185;-53
2021/01/08 08:20:18;;;;;;;;;;;19.80;36.50;;;;;;491109;240;1188;-54
2021/01/08 08:22:19;;;;;;;;;;;19.80;36.50;;;;;;491179;240;1286;-54
2021/01/08 08:24:21;;;;;;;;;;;19.80;36.50;;;;;;491253;240;1110;-54
2021/01/08 08:26:22;;;;;;;;;;;19.80;36.50;;;;;;491228;240;1020;-54
2021/01/08 08:28:23;;;;;;;;;;;19.80;36.50;;;;;;491135;240;2188;-54
2021/01/08 08:30:24;;;;;;;;;;;19.80;36.50;;;;;;491226;240;1088;-54
2021/01/08 08:32:26;;;;;;;;;;;19.80;36.50;;;;;;491171;240;1155;-54
2021/01/08 08:34:27;;;;;;;;;;;19.80;36.50;;;;;;491106;240;1516;-54
2021/01/08 08:36:28;;;;;;;;;;;19.80;36.50;;;;;;491147;240;1388;-54
2021/01/08 08:38:29;;;;;;;;;;;19.80;36.50;;;;;;491179;240;1299;-54
2021/01/08 08:40:31;;;;;;;;;;;19.80;36.50;;;;;;491180;240;1144;-55
2021/01/08 08:42:32;;;;;;;;;;;19.80;36.40;;;;;;491178;240;1218;-54
2021/01/08 08:44:33;;;;;;;;;;;19.80;36.40;;;;;;491178;240;1177;-53
2021/01/08 08:46:34;;;;;;;;;;;19.80;36.50;;;;;;491220;240;1206;-54
2021/01/08 08:48:37;;;;;;;;;;;19.80;36.50;;;;;;491336;240;2233;-54
2021/01/08 08:50:39;;;;;;;;;;;19.90;36.50;;;;;;491088;240;1159;-54
2021/01/08 08:52:40;;;;;;;;;;;19.80;36.50;;;;;;491079;240;1207;-54
2021/01/08 08:54:42;;;;;;;;;;;19.80;36.40;;;;;;491066;240;1142;-53
2021/01/08 08:56:43;;;;;;;;;;;19.80;36.40;;;;;;491154;240;1409;-54
2021/01/08 08:58:45;;;;;;;;;;;19.90;36.50;;;;;;491194;240;1005;-54
2021/01/08 09:00:46;;;;;;;;;;;19.80;36.40;;;;;;491198;240;1210;-54
2021/01/08 09:02:48;;;;;;;;;;;19.90;36.50;;;;;;491057;240;1044;-54
2021/01/08 09:04:49;;;;;;;;;;;19.90;36.40;;;;;;491115;240;1229;-54
2021/01/08 09:06:50;;;;;;;;;;;19.80;35.10;;;;;;491116;240;1089;-54
2021/01/08 09:08:52;;;;;;;;;;;19.90;36.50;;;;;;491156;240;2120;-54
2021/01/08 09:10:53;;;;;;;;;;;19.90;36.50;;;;;;491136;240;1114;-54
2021/01/08 09:12:54;;;;;;;;;;;19.90;36.40;;;;;;491199;240;1024;-54
2021/01/08 09:14:55;;;;;;;;;;;19.90;36.50;;;;;;491088;240;1204;-54
2021/01/08 09:16:59;;;;;;;;;;;19.90;36.50;;;;;;491122;240;1060;-53
2021/01/08 09:18:58;;;;;;;;;;;19.90;36.50;;;;;;491058;240;2105;-54
2021/01/08 09:20:59;;;;;;;;;;;19.90;36.50;;;;;;491091;240;1168;-53
2021/01/08 09:23:01;;;;;;;;;;;19.90;36.40;;;;;;491280;240;1088;-54
2021/01/08 09:25:02;;;;;;;;;;;19.90;36.40;;;;;;491276;240;1279;-54
2021/01/08 09:27:03;;;;;;;;;;;19.90;36.40;;;;;;491317;240;1046;-54
2021/01/08 09:29:05;;;;;;;;;;;19.90;36.40;;;;;;491236;240;2180;-54
2021/01/08 09:31:06;;;;;;;;;;;19.90;36.40;;;;;;491374;240;1156;-54
2021/01/08 09:33:08;;;;;;;;;;;19.90;35.10;;;;;;491317;240;1136;-54
2021/01/08 09:35:09;;;;;;;;;;;19.90;36.40;;;;;;491278;238;1337;-54
2021/01/08 09:37:10;;;;;;;;;;;19.90;36.40;;;;;;491300;240;1071;-54
2021/01/08 09:39:11;;;;;;;;;;;19.90;36.40;;;;;;491376;240;1061;-53
2021/01/08 09:41:13;;;;;;;;;;;19.90;36.40;;;;;;491270;240;1055;-54
2021/01/08 09:43:14;;;;;;;;;;;19.90;36.40;;;;;;491399;240;1037;-54
2021/01/08 09:45:15;;;;;;;;;;;19.90;36.40;;;;;;491356;240;1024;-55
2021/01/08 09:47:17;;;;;;;;;;;19.90;36.40;;;;;;491248;240;2191;-54
2021/01/08 09:49:18;;;;;;;;;;;19.90;36.40;;;;;;491258;240;1121;-54
2021/01/08 09:51:20;;;;;;;;;;;19.90;36.40;;;;;;491139;240;1203;-54
2021/01/08 09:53:21;;;;;;;;;;;19.90;36.40;;;;;;491249;240;1094;-54
2021/01/08 09:55:22;;;;;;;;;;;19.90;36.40;;;;;;491248;240;1225;-54
2021/01/08 09:57:24;;;;;;;;;;;19.90;36.30;;;;;;491283;240;1225;-54
2021/01/08 09:59:25;;;;;;;;;;;20.00;36.50;;;;;;491145;240;1148;-54
2021/01/08 10:01:26;;;;;;;;;;;20.00;36.30;;;;;;491193;242;1049;-54
2021/01/08 10:03:28;;;;;;;;;;;20.10;36.30;;;;;;491259;240;1135;-54
2021/01/08 10:05:29;;;;;;;;;;;20.00;36.20;;;;;;491096;240;1211;-54
2021/01/08 10:07:30;;;;;;;;;;;20.00;36.30;;;;;;491129;240;2152;-54
2021/01/08 10:09:31;;;;;;;;;;;20.00;35.10;;;;;;491160;240;1219;-54
2021/01/08 10:11:33;;;;;;;;;;;19.90;36.40;;;;;;491218;240;1302;-54
2021/01/08 10:13:34;;;;;;;;;;;19.90;36.50;;;;;;491344;240;1045;-54
2021/01/08 10:15:36;;;;;;;;;;;19.90;36.50;;;;;;491319;240;1077;-54
2021/01/08 10:17:38;;;;;;;;;;;19.80;36.60;;;;;;491197;240;1067;-54
2021/01/08 10:19:39;;;;;;;;;;;19.80;36.70;;;;;;491261;240;1075;-54
2021/01/08 10:21:40;;;;;;;;;;;19.80;36.80;;;;;;491213;240;1207;-54
2021/01/08 10:23:41;;;;;;;;;;;19.70;36.80;;;;;;491263;240;1013;-53
2021/01/08 10:25:43;;;;;;;;;;;19.70;36.80;;;;;;491231;240;1049;-53
2021/01/08 10:27:44;;;;;;;;;;;19.60;36.90;;;;;;491111;240;2183;-54
2021/01/08 10:29:45;;;;;;;;;;;19.60;36.90;;;;;;491218;240;1085;-53
2021/01/08 10:31:46;;;;;;;;;;;19.60;37.00;;;;;;491241;240;1057;-54
2021/01/08 10:33:48;;;;;;;;;;;19.60;37.00;;;;;;491174;240;1048;-54
2021/01/08 10:35:49;;;;;;;;;;;19.50;37.00;;;;;;491033;240;1112;-54
2021/01/08 10:37:50;;;;;;;;;;;19.50;37.10;;;;;;491190;240;1019;-54
2021/01/08 10:39:51;;;;;;;;;;;19.50;37.10;;;;;;491240;240;1071;-53
2021/01/08 10:41:53;;;;;;;;;;;19.40;35.90;;;;;;491145;240;1062;-53
2021/01/08 10:43:54;;;;;;;;;;;19.40;35.90;;;;;;491169;240;1087;-54
2021/01/08 10:45:55;;;;;;;;;;;19.40;37.30;;;;;;491277;240;1219;-54
2021/01/08 10:47:57;;;;;;;;;;;19.40;37.30;;;;;;491206;240;2196;-53
2021/01/08 10:49:59;;;;;;;;;;;19.30;37.20;;;;;;491236;240;1071;-54
2021/01/08 10:52:00;;;;;;;;;;;19.30;37.30;;;;;;491184;240;1310;-54
2021/01/08 10:54:01;;;;;;;;;;;19.30;37.30;;;;;;491255;240;1102;-53
2021/01/08 10:56:03;;;;;;;;;;;19.30;37.40;;;;;;491263;240;1095;-54
2021/01/08 10:58:04;;;;;;;;;;;19.30;37.40;;;;;;491308;240;1218;-54
2021/01/08 11:00:05;;;;;;;;;;;19.20;37.40;;;;;;491169;240;1059;-54
2021/01/08 11:02:07;;;;;;;;;;;19.20;37.40;;;;;;491151;240;1335;-53
2021/01/08 11:04:08;;;;;;;;;;;19.20;36.10;;;;;;491267;240;1075;-53
2021/01/08 11:06:09;;;;;;;;;;;19.20;37.50;;;;;;491198;240;1317;-54
2021/01/08 11:08:11;;;;;;;;;;;19.20;37.50;;;;;;491247;240;2140;-53
2021/01/08 11:10:12;;;;;;;;;;;19.10;37.40;;;;;;491260;240;1056;-53
2021/01/08 11:12:13;;;;;;;;;;;19.10;37.40;;;;;;491191;240;1393;-54
2021/01/08 11:14:15;;;;;;;;;;;19.10;37.40;;;;;;491172;240;1056;-54
2021/01/08 11:16:16;;;;;;;;;;;19.10;37.40;;;;;;491185;240;1216;-54
2021/01/08 11:18:17;;;;;;;;;;;19.10;37.50;;;;;;491228;240;1074;-54
2021/01/08 11:20:18;;;;;;;;;;;19.10;37.60;;;;;;491282;240;1054;-54
2021/01/08 11:22:20;;;;;;;;;;;19.10;37.50;;;;;;491186;240;1274;-54
2021/01/08 11:24:21;;;;;;;;;;;19.00;37.50;;;;;;491153;240;1012;-54
2021/01/08 11:26:22;;;;;;;;;;;19.10;36.30;;;;;;491034;240;1210;-54
2021/01/08 11:28:24;;;;;;;;;;;19.00;37.60;;;;;;491315;240;2180;-54
2021/01/08 11:30:25;;;;;;;;;;;19.00;37.60;;;;;;490720;240;1105;-54
2021/01/08 11:32:26;;;;;;;;;;;19.00;37.60;;;;;;491278;240;1058;-54
2021/01/08 11:34:27;;;;;;;;;;;19.00;37.60;;;;;;491188;240;1051;-54
2021/01/08 11:36:29;;;;;;;;;;;19.00;37.60;;;;;;491133;239;1322;-53
2021/01/08 11:38:30;;;;;;;;;;;19.00;37.70;;;;;;491291;240;1070;-54
2021/01/08 11:40:31;;;;;;;;;;;19.00;37.70;;;;;;491121;240;1050;-54
2021/01/08 11:42:32;;;;;;;;;;;18.90;37.70;;;;;;491271;240;1028;-54
2021/01/08 11:44:34;;;;;;;;;;;18.90;37.70;;;;;;491469;240;1067;-53
2021/01/08 11:46:35;;;;;;;;;;;18.90;37.70;;;;;;491281;240;1055;-54
2021/01/08 11:48:36;;;;;;;;;;;18.90;37.70;;;;;;491316;240;2140;-54
2021/01/08 11:50:38;;;;;;;;;;;18.90;37.70;;;;;;491232;240;1014;-54
2021/01/08 11:52:39;;;;;;;;;;;18.90;37.70;;;;;;491250;240;1218;-54
2021/01/08 11:54:41;;;;;;;;;;;18.90;37.80;;;;;;491307;240;1057;-54
2021/01/08 11:56:42;;;;;;;;;;;18.90;37.80;;;;;;491294;240;1012;-54